Time;durP1;ratioP1;P1;durP2;ratioP2;P2;SDS_P1;SDS_P2;PMS_P1;PMS_P2;Temp;Humidity;BMP_temperature;BMP_pressure;BME280_temperature;BME280_humidity;BME280_pressure;Samples;Min_cycle;Max_cycle;Signal;HPM_P1;HPM_P2
2022/07/02 00:02:06;;;;;;;15.60;5.32;;;;;;;25.86;62.63;100289.97;6210556;23;20008;-64
2022/07/02 00:04:34;;;;;;;16.60;5.30;;;;;;;25.85;62.76;100291.03;6210425;23;20005;-63
2022/07/02 00:07:00;;;;;;;9.02;5.50;;;;;;;25.71;63.04;100284.91;6210634;23;20024;-72
2022/07/02 00:09:27;;;;;;;8.15;5.45;;;;;;;25.76;62.64;100303.44;6210366;23;20005;-71
2022/07/02 00:11:57;;;;;;;9.18;4.55;;;;;;;25.69;62.53;100300.78;6210373;23;20087;-71
2022/07/02 00:14:23;;;;;;;8.10;5.07;;;;;;;25.66;62.53;100298.47;6210098;23;20020;-72
2022/07/02 00:16:51;;;;;;;7.95;5.10;;;;;;;25.71;62.12;100293.16;6209820;23;20477;-72
2022/07/02 00:19:16;;;;;;;13.38;5.43;;;;;;;25.63;62.23;100285.22;6209719;23;20005;-72
2022/07/02 00:21:42;;;;;;;8.70;5.10;;;;;;;25.58;62.36;100296.06;6209822;23;20017;-71
2022/07/02 00:24:08;;;;;;;8.40;4.78;;;;;;;25.64;62.25;100299.78;6210159;23;20000;-71
2022/07/02 00:26:45;;;;;;;7.15;5.18;;;;;;;25.62;62.05;100305.53;6209062;23;20047;-71
2022/07/02 00:29:29;;;;;;;6.70;5.13;;;;;;;25.51;62.11;100278.00;6182729;23;20001;-72
2022/07/02 00:31:56;;;;;;;8.52;4.75;;;;;;;25.54;61.93;100280.28;6209618;23;20001;-72
2022/07/02 00:34:24;;;;;;;14.60;5.88;;;;;;;25.55;61.94;100280.06;6209627;23;20433;-64
2022/07/02 00:36:50;;;;;;;10.80;4.93;;;;;;;25.59;62.32;100281.25;6209759;23;20224;-64
2022/07/02 00:39:16;;;;;;;13.80;6.20;;;;;;;25.65;61.85;100282.22;6209956;23;20004;-63
2022/07/02 00:41:43;;;;;;;10.23;5.63;;;;;;;25.54;62.11;100277.53;6209652;23;20076;-64
2022/07/02 00:44:09;;;;;;;9.57;4.95;;;;;;;25.56;62.10;100272.63;6183303;23;20666;-63
2022/07/02 00:46:36;;;;;;;9.02;4.95;;;;;;;25.51;61.48;100267.00;6210127;23;20020;-63
2022/07/02 00:49:02;;;;;;;13.73;5.38;;;;;;;25.58;60.75;100251.28;6210311;23;20008;-63
2022/07/02 00:51:27;;;;;;;11.73;5.43;;;;;;;25.56;60.54;100253.41;6209875;23;20304;-71
2022/07/02 00:53:53;;;;;;;8.10;4.25;;;;;;;25.53;60.49;100257.47;6209596;23;20050;-71
2022/07/02 00:56:19;;;;;;;11.73;4.95;;;;;;;25.45;60.64;100248.72;6209820;23;20004;-72
2022/07/02 00:58:45;;;;;;;8.77;5.07;;;;;;;25.37;60.61;100246.31;6209151;23;20016;-72
2022/07/02 01:01:11;;;;;;;11.27;4.25;;;;;;;25.50;59.96;100251.63;6209804;23;20047;-72
2022/07/02 01:03:37;;;;;;;13.65;4.72;;;;;;;25.42;59.97;100247.28;6209763;23;20005;-72
2022/07/02 01:06:02;;;;;;;8.95;5.25;;;;;;;25.40;60.09;100243.06;6211392;23;20039;-72
2022/07/02 01:11:17;;;;;;;8.88;4.63;;;;;;;25.30;59.67;100238.09;6211765;23;20071;-72
2022/07/02 01:13:42;;;;;;;10.70;3.92;;;;;;;25.33;59.50;100247.81;6211602;23;20027;-72
2022/07/02 01:16:08;;;;;;;5.13;3.97;;;;;;;25.36;59.51;100248.19;6211862;23;20019;-62
2022/07/02 01:18:34;;;;;;;7.57;4.22;;;;;;;25.33;59.22;100242.31;6211666;23;20040;-64
2022/07/02 01:21:00;;;;;;;7.47;4.10;;;;;;;25.26;59.35;100239.66;6185085;23;20040;-63
2022/07/02 01:23:25;;;;;;;6.70;4.00;;;;;;;25.25;59.26;100246.22;6211669;23;20008;-63
2022/07/02 01:25:52;;;;;;;6.72;4.68;;;;;;;25.23;59.33;100264.81;6211350;23;20146;-64
2022/07/02 01:28:19;;;;;;;18.25;4.03;;;;;;;25.20;59.08;100268.03;6211640;23;20076;-63
2022/07/02 01:30:45;;;;;;;8.25;4.00;;;;;;;25.19;59.03;100268.25;6211409;23;20005;-64
2022/07/02 01:33:10;;;;;;;5.82;4.05;;;;;;;25.19;59.06;100260.00;6211925;23;20712;-64
2022/07/02 01:35:36;;;;;;;8.45;3.95;;;;;;;25.17;59.12;100268.47;6211487;23;20004;-64
2022/07/02 01:38:02;;;;;;;5.55;3.92;;;;;;;25.13;59.07;100256.28;6185055;23;20008;-64
2022/07/02 01:40:27;;;;;;;10.18;3.83;;;;;;;25.07;59.35;100256.34;6184451;23;20083;-63
2022/07/02 01:42:53;;;;;;;8.70;3.90;;;;;;;25.12;59.51;100273.00;6211388;23;20012;-62
2022/07/02 01:45:18;;;;;;;7.15;3.92;;;;;;;25.03;59.79;100280.69;6211260;23;20016;-63
2022/07/02 01:47:44;;;;;;;8.13;4.22;;;;;;;25.02;59.98;100292.72;6211096;23;20422;-63
2022/07/02 01:50:10;;;;;;;7.20;3.92;;;;;;;25.01;60.44;100312.16;6211638;23;20094;-63
2022/07/02 01:52:35;;;;;;;6.47;3.83;;;;;;;25.03;60.88;100323.75;6211279;23;20416;-64
2022/07/02 01:55:01;;;;;;;6.97;3.38;;;;;;;24.94;61.39;100305.91;6211286;23;20015;-64
2022/07/02 01:57:29;;;;;;;10.43;3.75;;;;;;;24.91;62.11;100328.31;6211349;23;20087;-62
2022/07/02 01:59:55;;;;;;;6.70;4.13;;;;;;;24.83;62.51;100324.00;6211232;23;20012;-63
2022/07/02 02:02:21;;;;;;;4.97;3.75;;;;;;;24.78;62.68;100321.06;6211577;23;20004;-65
2022/07/02 02:04:46;;;;;;;3.78;3.17;;;;;;;24.84;63.16;100330.28;6211408;23;20011;-64
2022/07/02 02:07:11;;;;;;;5.10;3.22;;;;;;;24.82;63.73;100330.53;6211477;23;20004;-64
2022/07/02 02:09:37;;;;;;;8.57;3.42;;;;;;;24.67;64.08;100332.78;6210571;23;20072;-65
2022/07/02 02:12:03;;;;;;;10.73;3.65;;;;;;;24.56;64.70;100335.41;6184336;23;20489;-64
2022/07/02 02:14:29;;;;;;;10.48;3.67;;;;;;;24.43;65.17;100328.97;6210866;23;20016;-64
2022/07/02 02:16:54;;;;;;;6.28;3.22;;;;;;;24.34;65.40;100330.28;6210443;23;20071;-64
2022/07/02 02:19:19;;;;;;;8.73;3.42;;;;;;;24.30;65.76;100320.00;6211024;23;20470;-63
2022/07/02 02:21:45;;;;;;;6.57;3.42;;;;;;;24.16;66.15;100311.06;6209033;23;20020;-62
2022/07/02 02:24:10;;;;;;;5.75;2.97;;;;;;;24.11;66.33;100310.88;6211058;23;20013;-64
2022/07/02 02:26:36;;;;;;;7.35;3.33;;;;;;;24.05;66.58;100325.47;6210746;23;20012;-63
2022/07/02 02:29:02;;;;;;;3.45;3.00;;;;;;;24.06;66.35;100321.66;6210982;23;20011;-63
2022/07/02 02:31:27;;;;;;;5.45;3.05;;;;;;;24.01;66.48;100313.25;6210840;23;20008;-62
2022/07/02 02:33:53;;;;;;;6.53;3.22;;;;;;;23.97;66.73;100305.69;6210810;23;20004;-62
2022/07/02 02:36:18;;;;;;;6.50;2.90;;;;;;;23.90;66.95;100300.22;6210961;23;20012;-64
2022/07/02 02:38:46;;;;;;;4.97;2.83;;;;;;;23.87;67.44;100308.91;6210627;23;20009;-62
2022/07/02 02:41:12;;;;;;;4.30;2.80;;;;;;;23.85;67.27;100296.47;6211348;23;20336;-63
2022/07/02 02:43:37;;;;;;;10.50;3.60;;;;;;;23.79;68.03;100291.88;6210459;23;20071;-64
2022/07/02 02:46:05;;;;;;;6.07;3.22;;;;;;;23.76;68.24;100290.41;6210627;23;20023;-63
2022/07/02 02:48:33;;;;;;;4.43;3.20;;;;;;;23.74;68.36;100286.22;6210169;23;20058;-63
2022/07/02 02:50:58;;;;;;;6.45;3.13;;;;;;;23.67;68.26;100266.25;6184502;23;20000;-62
2022/07/02 02:53:25;;;;;;;5.95;3.10;;;;;;;23.70;68.54;100276.78;6209122;23;20016;-62
2022/07/02 02:55:50;;;;;;;4.25;3.45;;;;;;;23.64;68.70;100275.72;6210452;23;20046;-63
2022/07/02 02:58:16;;;;;;;7.22;3.33;;;;;;;23.64;69.01;100294.91;6210438;23;20059;-63
2022/07/02 03:00:42;;;;;;;5.50;3.53;;;;;;;23.62;68.84;100305.25;6210513;23;20015;-62
2022/07/02 03:03:07;;;;;;;5.60;3.42;;;;;;;23.57;68.95;100299.59;6210559;23;20083;-63
2022/07/02 03:05:33;;;;;;;5.90;3.58;;;;;;;23.54;69.31;100288.25;6210501;23;20075;-63
2022/07/02 03:07:58;;;;;;;6.97;3.67;;;;;;;23.50;69.09;100281.50;6210700;23;20058;-64
2022/07/02 03:10:24;;;;;;;5.25;3.20;;;;;;;23.55;68.65;100295.41;6211012;23;20011;-62
2022/07/02 03:12:49;;;;;;;6.00;3.22;;;;;;;23.48;68.43;100297.34;6210677;23;20012;-63
2022/07/02 03:15:15;;;;;;;6.03;3.40;;;;;;;23.50;68.40;100307.00;6210930;23;20004;-61
2022/07/02 03:17:40;;;;;;;5.90;3.53;;;;;;;23.51;68.25;100305.13;6209198;23;20078;-62
2022/07/02 03:20:06;;;;;;;4.28;3.25;;;;;;;23.46;68.45;100305.75;6211162;23;20009;-62
2022/07/02 03:22:32;;;;;;;4.07;3.40;;;;;;;23.54;68.26;100307.41;6210770;23;20310;-63
2022/07/02 03:24:57;;;;;;;4.75;3.47;;;;;;;23.51;68.03;100314.16;6210996;23;20009;-63
2022/07/02 03:27:24;;;;;;;5.07;3.17;;;;;;;23.53;67.67;100331.22;6210632;23;20001;-63
2022/07/02 03:29:50;;;;;;;5.85;3.10;;;;;;;23.47;67.54;100345.75;6210180;23;20123;-63
2022/07/02 03:32:16;;;;;;;7.93;3.50;;;;;;;23.53;67.25;100375.03;6210808;23;20000;-71
2022/07/02 03:34:41;;;;;;;5.82;3.75;;;;;;;23.59;67.25;100397.97;6210998;23;20009;-71
2022/07/02 03:37:07;;;;;;;7.43;3.00;;;;;;;23.58;67.30;100391.66;6210870;23;20059;-71
2022/07/02 03:39:32;;;;;;;4.32;3.45;;;;;;;23.48;67.87;100393.16;6210562;23;20019;-72
2022/07/02 03:41:58;;;;;;;7.97;3.35;;;;;;;23.52;68.07;100395.25;6210338;23;20011;-71
2022/07/02 03:44:23;;;;;;;6.47;3.13;;;;;;;23.45;68.40;100402.66;6210643;23;20004;-71
2022/07/02 03:46:49;;;;;;;4.38;3.15;;;;;;;23.53;68.39;100421.56;6207526;23;20096;-72
2022/07/02 03:49:14;;;;;;;4.22;2.40;;;;;;;23.51;68.39;100428.34;6210826;23;20006;-64
2022/07/02 03:51:40;;;;;;;3.20;2.72;;;;;;;23.54;68.39;100439.69;6210045;23;20000;-63
2022/07/02 03:54:05;;;;;;;5.35;2.70;;;;;;;23.56;67.73;100440.31;6210678;23;20012;-64
2022/07/02 03:56:30;;;;;;;6.10;2.67;;;;;;;23.51;68.06;100448.31;6210636;23;20066;-64
2022/07/02 03:58:56;;;;;;;6.03;2.80;;;;;;;23.53;67.89;100437.16;6210162;23;20350;-62
2022/07/02 04:01:30;;;;;;;9.98;2.95;;;;;;;23.48;67.66;100439.72;5062759;28;20387;-66
2022/07/02 04:03:55;;;;;;;6.00;2.20;;;;;;;23.49;67.57;100455.06;5062522;28;20039;-65
2022/07/02 04:06:21;;;;;;;4.93;2.33;;;;;;;23.39;67.58;100446.47;5062612;28;20033;-65
2022/07/02 04:08:46;;;;;;;6.93;2.72;;;;;;;23.41;67.48;100453.41;5062712;28;20082;-67
2022/07/02 04:11:12;;;;;;;6.22;2.10;;;;;;;23.46;67.08;100466.47;5062415;28;20036;-66
2022/07/02 04:13:37;;;;;;;5.85;2.28;;;;;;;23.47;67.17;100473.63;5062123;28;20111;-66
2022/07/02 04:16:03;;;;;;;2.65;2.25;;;;;;;23.36;67.32;100472.38;5062203;28;20115;-65
2022/07/02 04:18:29;;;;;;;11.13;2.45;;;;;;;23.36;67.14;100486.06;5062125;28;20124;-65
2022/07/02 04:20:54;;;;;;;5.90;2.05;;;;;;;23.41;66.45;100491.72;5061903;28;20017;-66
2022/07/02 04:23:19;;;;;;;3.45;1.75;;;;;;;23.43;66.40;100508.81;5061009;28;20080;-66
2022/07/02 04:25:45;;;;;;;2.50;1.38;;;;;;;23.43;66.37;100525.22;5061284;28;20633;-66
2022/07/02 04:28:12;;;;;;;3.10;1.42;;;;;;;23.53;66.00;100539.31;5060248;28;20033;-65
2022/07/02 04:30:37;;;;;;;2.95;1.52;;;;;;;23.59;65.54;100518.47;5061016;28;20099;-66
2022/07/02 04:33:03;;;;;;;4.00;1.75;;;;;;;23.70;65.34;100515.91;5061659;28;20116;-64
2022/07/02 04:35:28;;;;;;;23.00;2.38;;;;;;;23.81;64.76;100526.22;5061470;28;20032;-65
2022/07/02 04:37:54;;;;;;;5.00;1.90;;;;;;;23.89;64.38;100534.19;5061126;28;20087;-64
2022/07/02 04:40:19;;;;;;;2.88;1.42;;;;;;;23.95;63.99;100544.31;5061555;28;20127;-64
2022/07/02 04:42:45;;;;;;;4.95;1.80;;;;;;;24.03;63.69;100532.28;5061163;28;20025;-65
2022/07/02 04:45:10;;;;;;;5.00;1.90;;;;;;;24.00;63.24;100521.75;5061323;28;20039;-64
2022/07/02 04:47:36;;;;;;;4.97;1.40;;;;;;;24.10;62.81;100538.59;5063224;28;20029;-66
2022/07/02 04:50:01;;;;;;;2.97;2.10;;;;;;;24.17;62.63;100556.69;5061015;28;20025;-65
2022/07/02 04:52:27;;;;;;;10.80;3.90;;;;;;;24.23;62.21;100552.25;5059607;28;20059;-65
2022/07/02 04:54:52;;;;;;;8.77;2.83;;;;;;;24.17;62.34;100550.34;5060693;28;20017;-64
2022/07/02 04:57:17;;;;;;;8.27;2.00;;;;;;;24.18;62.19;100550.13;5061246;28;20391;-65
2022/07/02 04:59:44;;;;;;;4.07;1.88;;;;;;;24.21;62.10;100540.63;5060668;28;20041;-65
2022/07/02 05:02:13;;;;;;;4.75;1.83;;;;;;;24.27;61.59;100548.84;5059968;28;20030;-66
2022/07/02 05:04:39;;;;;;;4.25;1.73;;;;;;;24.31;61.36;100543.75;5060556;28;20025;-67
2022/07/02 05:07:04;;;;;;;6.93;1.60;;;;;;;24.44;60.68;100549.19;5071382;28;20379;-64
2022/07/02 05:09:30;;;;;;;7.55;1.77;;;;;;;24.55;60.30;100553.13;5064937;28;20037;-65
2022/07/02 05:11:55;;;;;;;4.80;1.60;;;;;;;24.53;60.34;100541.56;5052124;28;20107;-65
2022/07/02 05:14:21;;;;;;;7.45;1.90;;;;;;;24.63;59.89;100559.19;5043887;28;20068;-66
2022/07/02 05:16:46;;;;;;;3.00;1.33;;;;;;;24.72;59.59;100568.03;5055539;28;20036;-66
2022/07/02 05:19:12;;;;;;;3.25;1.60;;;;;;;24.73;59.61;100559.59;5062645;28;20135;-65
2022/07/02 05:21:40;;;;;;;2.60;1.52;;;;;;;24.74;59.16;100546.72;5045411;28;20025;-65
2022/07/02 05:24:06;;;;;;;6.57;1.73;;;;;;;24.90;58.88;100554.44;5047072;28;20049;-64
2022/07/02 05:26:32;;;;;;;2.17;1.38;;;;;;;24.90;58.85;100554.44;5061437;28;20068;-66
2022/07/02 05:28:57;;;;;;;5.53;1.40;;;;;;;24.97;58.33;100567.06;5064766;28;20064;-65
2022/07/02 05:31:22;;;;;;;4.57;1.60;;;;;;;24.97;58.46;100555.22;5067099;28;20103;-66
2022/07/02 05:33:48;;;;;;;2.45;1.15;;;;;;;25.07;58.31;100561.91;5066847;28;20044;-67
2022/07/02 05:36:13;;;;;;;6.53;1.83;;;;;;;25.19;58.18;100564.78;5065655;28;20467;-64
2022/07/02 05:38:39;;;;;;;3.75;1.60;;;;;;;25.29;57.54;100565.13;5067056;28;20032;-65
2022/07/02 05:41:04;;;;;;;5.53;1.60;;;;;;;25.35;57.21;100569.75;5059197;28;20041;-65
2022/07/02 05:43:30;;;;;;;4.72;1.85;;;;;;;25.43;57.16;100578.53;5047095;28;20577;-65
2022/07/02 05:45:55;;;;;;;14.32;2.03;;;;;;;25.45;56.76;100581.91;5050239;28;20024;-65
2022/07/02 05:48:21;;;;;;;3.72;1.52;;;;;;;25.49;56.60;100568.56;5066902;28;20056;-65
2022/07/02 05:50:46;;;;;;;2.70;1.70;;;;;;;25.55;56.70;100556.66;5066835;28;20028;-65
2022/07/02 05:53:13;;;;;;;4.25;1.40;;;;;;;25.64;56.66;100550.69;5067023;28;20097;-66
2022/07/02 05:55:39;;;;;;;4.25;1.50;;;;;;;25.79;56.40;100567.63;5066849;28;20152;-66
2022/07/02 05:58:04;;;;;;;5.78;1.75;;;;;;;25.87;55.82;100564.59;5066609;28;20031;-65
2022/07/02 06:00:30;;;;;;;3.65;1.30;;;;;;;25.91;55.68;100560.31;5059040;28;20044;-66
2022/07/02 06:02:55;;;;;;;3.60;1.90;;;;;;;26.10;55.41;100569.44;5046031;28;20476;-65
2022/07/02 06:08:05;;;;;;;2.20;1.50;;;;;;;26.27;55.16;100562.25;5066672;28;20047;-65
2022/07/02 06:10:30;;;;;;;3.03;1.50;;;;;;;26.33;55.29;100561.31;5066577;28;20036;-66
2022/07/02 06:12:56;;;;;;;2.22;1.60;;;;;;;26.45;54.80;100553.97;5066531;28;20036;-65
2022/07/02 06:15:21;;;;;;;3.03;1.45;;;;;;;26.57;54.51;100559.53;5057553;28;20017;-68
2022/07/02 06:17:47;;;;;;;3.40;1.88;;;;;;;26.71;53.90;100559.16;5054236;28;20111;-64
2022/07/02 06:20:14;;;;;;;4.57;1.48;;;;;;;26.72;53.92;100568.25;5066169;28;20021;-65
2022/07/02 06:22:40;;;;;;;2.03;1.67;;;;;;;26.78;53.90;100561.81;5065563;28;20037;-65
2022/07/02 06:25:07;;;;;;;7.65;1.70;;;;;;;26.81;53.64;100566.84;5066257;28;20427;-67
2022/07/02 06:27:34;;;;;;;5.63;1.70;;;;;;;26.87;53.36;100569.50;5066103;28;20031;-66
2022/07/02 06:30:04;;;;;;;4.03;1.90;;;;;;;26.90;53.74;100558.03;5065959;28;20572;-66
2022/07/02 06:32:30;;;;;;;3.70;2.20;;;;;;;26.94;53.52;100556.47;5049666;28;20037;-65
2022/07/02 06:34:56;;;;;;;6.35;1.92;;;;;;;27.08;53.26;100557.13;5065102;28;20047;-65
2022/07/02 06:37:23;;;;;;;6.15;2.05;;;;;;;27.23;52.67;100560.25;5046402;28;20025;-66
2022/07/02 06:39:49;;;;;;;2.05;1.85;;;;;;;27.32;52.59;100553.34;5045708;28;20029;-66
2022/07/02 06:42:26;;;;;;;4.25;1.90;;;;;;;27.45;52.29;100570.53;5045771;28;20036;-65
2022/07/02 06:44:53;;;;;;;6.35;2.03;;;;;;;27.59;52.12;100576.63;5045562;28;20037;-64
2022/07/02 06:47:20;;;;;;;4.22;2.00;;;;;;;27.67;51.94;100576.28;5045038;28;20048;-66
2022/07/02 06:49:46;;;;;;;1.70;1.60;;;;;;;27.66;51.77;100582.88;5043410;28;20060;-65
2022/07/02 06:52:12;;;;;;;3.67;2.10;;;;;;;27.73;52.26;100589.94;5044122;28;20379;-66
2022/07/02 06:54:38;;;;;;;5.85;1.98;;;;;;;27.90;51.43;100592.84;5045428;28;20024;-65
2022/07/02 06:57:05;;;;;;;5.57;2.50;;;;;;;27.98;51.09;100590.56;5047218;28;20374;-66
2022/07/02 06:59:31;;;;;;;4.85;2.03;;;;;;;28.18;50.96;100599.28;5047187;28;20617;-66
2022/07/02 07:01:57;;;;;;;5.78;2.10;;;;;;;28.24;50.74;100592.81;5047331;28;20565;-66
2022/07/02 07:04:22;;;;;;;7.13;2.10;;;;;;;28.33;50.39;100594.09;5047338;28;20028;-65
2022/07/02 07:07:08;;;;;;;4.43;2.17;;;;;;;28.30;50.54;100589.06;5046964;28;20370;-66
2022/07/02 07:09:34;;;;;;;5.20;2.30;;;;;;;28.44;49.82;100598.78;5044614;28;20609;-66
2022/07/02 07:12:00;;;;;;;4.53;2.10;;;;;;;28.46;50.11;100604.91;5046943;28;20483;-66
2022/07/02 07:14:26;;;;;;;4.90;2.20;;;;;;;28.42;50.50;100589.03;5049785;28;20040;-65
2022/07/02 07:16:51;;;;;;;5.63;2.70;;;;;;;28.56;49.55;100608.97;5067113;28;20433;-67
2022/07/02 07:19:17;;;;;;;4.70;2.63;;;;;;;28.52;49.97;100598.41;5065086;28;20520;-66
2022/07/02 07:21:43;;;;;;;7.45;2.45;;;;;;;28.47;50.19;100597.47;5067009;28;20056;-66
2022/07/02 07:24:09;;;;;;;4.05;2.30;;;;;;;28.53;50.30;100597.31;5066547;28;20041;-65
2022/07/02 07:26:36;;;;;;;16.10;3.67;;;;;;;28.63;49.93;100601.38;5066631;28;20056;-66
2022/07/02 07:29:02;;;;;;;4.93;2.70;;;;;;;28.69;49.58;100597.66;5063988;28;20116;-66
2022/07/02 07:31:28;;;;;;;4.78;2.80;;;;;;;28.82;49.74;100598.16;5046401;28;20040;-65
2022/07/02 07:33:55;;;;;;;2.75;2.35;;;;;;;28.96;49.52;100605.09;5050213;28;20032;-65
2022/07/02 07:36:22;;;;;;;13.93;3.20;;;;;;;29.02;49.17;100606.03;5046563;28;20469;-66
2022/07/02 07:38:49;;;;;;;3.65;2.67;;;;;;;29.09;49.27;100609.50;5046791;28;20031;-65
2022/07/02 07:41:14;;;;;;;5.57;2.47;;;;;;;29.14;48.60;100615.13;5046619;28;20154;-66
2022/07/02 07:43:40;;;;;;;4.18;2.75;;;;;;;29.15;48.62;100606.59;5046592;28;20087;-66
2022/07/02 07:46:06;;;;;;;4.68;2.90;;;;;;;29.31;48.69;100610.47;5045380;28;20033;-66
2022/07/02 07:48:32;;;;;;;2.85;2.53;;;;;;;29.38;48.50;100623.03;5046948;28;20112;-67
2022/07/02 07:50:58;;;;;;;5.53;2.97;;;;;;;29.41;48.08;100624.47;5046830;28;20116;-65
2022/07/02 07:53:24;;;;;;;8.38;2.90;;;;;;;29.40;48.00;100622.78;5046606;28;20107;-65
2022/07/02 07:55:49;;;;;;;4.13;2.92;;;;;;;29.37;48.37;100634.34;5046230;28;20036;-66
2022/07/02 07:58:15;;;;;;;4.18;2.75;;;;;;;29.31;48.41;100622.34;5046715;28;20064;-66
2022/07/02 08:00:41;;;;;;;6.80;2.97;;;;;;;29.39;48.34;100621.09;5044757;28;20049;-64
2022/07/02 08:03:06;;;;;;;3.40;2.50;;;;;;;29.52;47.96;100621.63;5044976;28;20078;-66
2022/07/02 08:05:32;;;;;;;8.07;2.97;;;;;;;29.55;47.95;100632.19;5046797;28;20061;-66
2022/07/02 08:07:57;;;;;;;5.68;2.97;;;;;;;29.59;47.92;100638.03;5046892;28;20024;-66
2022/07/02 08:10:23;;;;;;;8.98;2.65;;;;;;;29.64;47.86;100635.41;5046791;28;20021;-64
2022/07/02 08:12:50;;;;;;;8.48;3.00;;;;;;;29.80;47.80;100638.16;5046865;28;20074;-66
2022/07/02 08:15:15;;;;;;;8.07;3.53;;;;;;;29.88;47.45;100639.66;5046152;28;20052;-66
2022/07/02 08:17:41;;;;;;;7.88;3.28;;;;;;;29.97;47.12;100651.97;5046247;28;20124;-66
2022/07/02 08:20:07;;;;;;;4.80;3.08;;;;;;;30.05;47.09;100643.25;5060562;28;20105;-66
2022/07/02 08:22:34;;;;;;;7.88;3.33;;;;;;;30.14;46.49;100644.47;5066171;28;20039;-66
2022/07/02 08:25:00;;;;;;;5.18;2.90;;;;;;;30.11;46.59;100656.91;5066780;28;20024;-65
2022/07/02 08:27:25;;;;;;;9.48;3.80;;;;;;;30.00;46.70;100638.47;5066272;28;20036;-66
2022/07/02 08:29:52;;;;;;;6.25;3.13;;;;;;;30.13;46.65;100640.88;5066505;28;20033;-64
2022/07/02 08:32:18;;;;;;;7.90;3.50;;;;;;;30.18;47.06;100654.81;5049047;28;20435;-64
2022/07/02 08:34:43;;;;;;;11.90;3.17;;;;;;;30.29;46.74;100650.28;5044883;28;20023;-64
2022/07/02 08:37:09;;;;;;;6.57;3.10;;;;;;;30.38;46.05;100643.22;5045379;28;20475;-65
2022/07/02 08:39:35;;;;;;;5.55;3.30;;;;;;;30.30;46.53;100640.88;5045844;28;20067;-65
2022/07/02 08:42:01;;;;;;;6.88;3.33;;;;;;;30.39;46.30;100650.41;5046259;28;20032;-65
2022/07/02 08:44:28;;;;;;;7.22;3.20;;;;;;;30.45;46.30;100653.03;5046027;28;20471;-65
2022/07/02 08:46:55;;;;;;;6.90;3.72;;;;;;;30.40;46.66;100654.84;5047150;28;20111;-65
2022/07/02 08:49:21;;;;;;;7.45;3.72;;;;;;;30.36;46.15;100645.38;5049870;28;20344;-65
2022/07/02 08:52:03;;;;;;;5.22;3.35;;;;;;;30.37;46.32;100653.44;5049428;28;20032;-65
2022/07/02 08:54:30;;;;;;;3.55;3.13;;;;;;;30.45;45.96;100663.25;5049934;28;20044;-65
2022/07/02 08:56:58;;;;;;;3.72;3.42;;;;;;;30.46;46.06;100664.91;5049677;28;20039;-65
2022/07/02 08:59:25;;;;;;;10.52;3.13;;;;;;;30.55;46.01;100668.91;5049243;28;20041;-65
2022/07/02 09:01:52;;;;;;;7.30;3.63;;;;;;;30.60;45.80;100664.28;5048038;28;20686;-65
2022/07/02 09:04:19;;;;;;;4.13;3.72;;;;;;;30.56;45.90;100673.34;5049105;28;20025;-66
2022/07/02 09:06:46;;;;;;;9.05;4.07;;;;;;;30.58;46.33;100662.88;5049240;28;20035;-65
2022/07/02 09:09:12;;;;;;;5.22;3.40;;;;;;;30.64;46.05;100661.84;5058623;28;20043;-65
2022/07/02 09:11:37;;;;;;;12.68;4.15;;;;;;;30.67;46.15;100666.88;5069006;28;20463;-65
2022/07/02 09:14:04;;;;;;;7.68;3.30;;;;;;;30.69;46.37;100678.50;5069563;28;20031;-65
2022/07/02 09:16:31;;;;;;;5.95;3.60;;;;;;;30.67;45.55;100666.88;5062284;28;20036;-65
2022/07/02 09:18:56;;;;;;;5.93;3.85;;;;;;;30.66;45.89;100678.22;5048755;28;20025;-64
2022/07/02 09:21:22;;;;;;;5.65;3.63;;;;;;;30.62;45.98;100680.63;5054305;28;20035;-65
2022/07/02 09:23:50;;;;;;;8.38;4.57;;;;;;;30.50;45.74;100661.38;5068947;28;20115;-66
2022/07/02 09:26:24;;;;;;;4.30;3.72;;;;;;;30.67;45.75;100683.50;5049338;28;20241;-65
2022/07/02 09:29:00;;;;;;;7.63;4.57;;;;;;;30.55;45.71;100674.47;5053072;28;20052;-65
2022/07/02 09:31:28;;;;;;;9.07;4.50;;;;;;;30.58;46.02;100676.72;5063646;28;20089;-65
2022/07/02 09:33:54;;;;;;;4.55;3.67;;;;;;;30.66;46.20;100684.56;5048901;28;20454;-66
2022/07/02 09:36:21;;;;;;;5.30;3.75;;;;;;;30.64;46.44;100681.22;5048869;28;20029;-65
2022/07/02 09:38:52;;;;;;;3.90;3.50;;;;;;;30.73;46.44;100685.28;5049032;28;20033;-65
2022/07/02 09:41:20;;;;;;;5.65;4.03;;;;;;;30.78;46.21;100670.66;5048993;28;20067;-64
2022/07/02 09:43:52;;;;;;;6.72;3.63;;;;;;;30.97;46.18;100683.03;5048580;28;20032;-67
2022/07/02 09:46:21;;;;;;;10.68;3.58;;;;;;;31.05;45.97;100675.16;5063804;28;20588;-66
2022/07/02 09:48:47;;;;;;;5.90;4.10;;;;;;;31.16;45.72;100671.38;5068613;28;20115;-65
2022/07/02 09:51:16;;;;;;;7.15;4.30;;;;;;;31.28;45.22;100668.47;5068486;28;20035;-64
2022/07/02 09:53:53;;;;;;;4.95;3.97;;;;;;;31.44;44.86;100668.38;5068196;28;20431;-66
2022/07/02 09:56:21;;;;;;;4.72;3.45;;;;;;;31.50;44.81;100669.25;5068357;28;20481;-64
2022/07/02 09:58:47;;;;;;;8.13;4.30;;;;;;;31.55;44.55;100660.97;5068085;28;20030;-65
2022/07/02 10:01:18;;;;;;;7.40;4.28;;;;;;;31.52;44.92;100662.34;5068153;28;20139;-66
2022/07/02 10:03:52;;;;;;;5.47;4.65;;;;;;;31.56;44.47;100654.34;5068172;28;20086;-64
2022/07/02 10:06:18;;;;;;;8.85;4.45;;;;;;;31.58;44.77;100657.69;5068380;28;20505;-66
2022/07/02 10:08:44;;;;;;;6.47;4.63;;;;;;;31.57;44.67;100656.84;5067966;28;20440;-65
2022/07/02 10:11:13;;;;;;;7.68;4.63;;;;;;;31.72;43.98;100661.72;5060705;28;20112;-66
2022/07/02 10:13:40;;;;;;;8.20;4.97;;;;;;;31.74;44.04;100645.63;5048138;28;20942;-64
2022/07/02 10:16:14;;;;;;;8.95;4.45;;;;;;;31.72;44.17;100643.09;5048407;28;20498;-65
2022/07/02 10:18:41;;;;;;;8.23;4.35;;;;;;;31.74;44.42;100653.94;5048001;28;20648;-65
2022/07/02 10:21:10;;;;;;;6.22;5.03;;;;;;;31.74;44.01;100645.63;5048288;28;20017;-66
2022/07/02 10:23:38;;;;;;;5.97;4.53;;;;;;;31.73;44.30;100633.69;5048379;28;20032;-65
2022/07/02 10:26:04;;;;;;;7.72;4.80;;;;;;;31.79;44.67;100624.28;5048000;28;20035;-65
2022/07/02 10:28:29;;;;;;;7.13;5.15;;;;;;;31.90;44.35;100628.84;5047759;28;20029;-66
2022/07/02 10:30:56;;;;;;;9.30;5.32;;;;;;;31.95;44.07;100628.06;5047523;28;20056;-66
2022/07/02 10:33:53;;;;;;;5.55;5.05;;;;;;;32.03;43.68;100627.53;5047303;28;20032;-66
2022/07/02 10:36:20;;;;;;;7.03;5.85;;;;;;;31.96;43.75;100618.63;5048198;28;20467;-66
2022/07/02 10:38:56;;;;;;;10.50;6.32;;;;;;;32.02;43.71;100623.91;5047334;28;20052;-66
2022/07/02 10:41:26;;;;;;;11.40;5.45;;;;;;;32.01;43.65;100624.19;5047513;28;20036;-66
2022/07/02 10:43:54;;;;;;;9.90;5.97;;;;;;;32.18;43.35;100624.88;5047516;28;20396;-65
2022/07/02 10:46:22;;;;;;;7.95;5.60;;;;;;;32.11;43.24;100599.31;5047508;28;20040;-65
2022/07/02 10:48:49;;;;;;;6.13;4.97;;;;;;;32.32;42.65;100613.03;5045503;28;20560;-66
2022/07/02 10:51:18;;;;;;;7.88;5.65;;;;;;;32.36;42.55;100616.97;5045758;28;20021;-66
2022/07/02 10:53:51;;;;;;;8.25;5.32;;;;;;;32.34;42.64;100612.78;5045044;28;20052;-65
2022/07/02 10:56:17;;;;;;;8.95;5.70;;;;;;;32.33;42.71;100611.94;5045537;28;20037;-66
2022/07/02 10:58:42;;;;;;;8.48;5.13;;;;;;;32.31;42.99;100613.28;5052177;28;20506;-66
2022/07/02 11:01:16;;;;;;;19.65;5.82;;;;;;;32.38;42.53;100608.34;5065857;28;20055;-67
2022/07/02 11:04:02;;;;;;;6.47;5.18;;;;;;;32.40;42.30;100595.06;5056608;28;20037;-66
2022/07/02 11:06:30;;;;;;;5.20;4.72;;;;;;;32.45;42.10;100600.59;5046071;28;20029;-66
2022/07/02 11:09:06;;;;;;;12.13;5.30;;;;;;;32.39;42.63;100591.44;5051072;28;20041;-65
2022/07/02 11:11:43;;;;;;;9.80;6.00;;;;;;;32.45;42.45;100600.59;5062710;28;20027;-67
2022/07/02 11:14:29;;;;;;;5.40;4.78;;;;;;;32.38;42.45;100592.53;5063248;28;20098;-66
2022/07/02 11:16:56;;;;;;;8.30;5.30;;;;;;;32.44;42.13;100594.22;5050318;28;20198;-66
2022/07/02 11:19:29;;;;;;;5.95;4.78;;;;;;;32.53;42.11;100586.22;5052637;28;20055;-66
2022/07/02 11:22:01;;;;;;;10.07;5.35;;;;;;;32.57;41.97;100585.38;5065693;28;20568;-65
2022/07/02 11:24:28;;;;;;;13.10;5.50;;;;;;;32.57;42.17;100584.56;5057547;28;20041;-66
2022/07/02 11:26:54;;;;;;;7.18;5.20;;;;;;;32.65;41.22;100574.88;5046971;28;20024;-67
2022/07/02 11:29:20;;;;;;;7.20;5.40;;;;;;;32.70;41.59;100575.72;5054845;28;20046;-66